createdAt,value
2022-11-19T00:02:18.003Z,76.01
2022-11-19T00:04:47.090Z,76.16
2022-11-19T00:07:15.524Z,76.18
2022-11-19T00:09:44.241Z,76.22
2022-11-19T00:12:30.914Z,76.28
2022-11-19T00:15:00.618Z,76.48
2022-11-19T00:17:29.828Z,76.53
2022-11-19T00:19:58.173Z,76.58
2022-11-19T00:22:26.972Z,76.49
2022-11-19T00:24:55.363Z,76.55
2022-11-19T00:27:24.362Z,76.71
2022-11-19T00:29:52.744Z,76.55
2022-11-19T00:32:23.297Z,76.69
2022-11-19T00:34:51.708Z,76.74
2022-11-19T00:37:20.971Z,76.88
2022-11-19T00:39:49.762Z,76.92
2022-11-19T00:42:18.181Z,76.91
2022-11-19T00:44:47.665Z,77.00
2022-11-19T00:47:16.370Z,77.06
2022-11-19T00:49:47.175Z,77.26
2022-11-19T00:52:16.046Z,77.25
2022-11-19T00:54:44.413Z,77.35
2022-11-19T00:57:13.692Z,77.39
2022-11-19T00:59:42.142Z,77.61
2022-11-19T01:02:10.950Z,77.65
2022-11-19T01:04:39.500Z,77.69
2022-11-19T01:07:09.273Z,77.68
2022-11-19T01:09:37.995Z,77.85
2022-11-19T01:12:07.018Z,77.88
2022-11-19T01:14:35.535Z,77.89
2022-11-19T01:17:03.936Z,78.06
2022-11-19T01:19:32.956Z,77.90
2022-11-19T01:22:01.829Z,78.14
2022-11-19T01:24:31.849Z,78.19
2022-11-19T01:27:01.123Z,78.16
2022-11-19T01:29:30.049Z,78.09
2022-11-19T01:31:58.447Z,78.04
2022-11-19T01:34:27.812Z,78.11
2022-11-19T01:36:56.236Z,78.00
2022-11-19T01:39:25.602Z,78.20
2022-11-19T01:41:55.328Z,78.00
2022-11-19T01:45:00.724Z,78.05
2022-11-19T01:47:29.565Z,78.14
2022-11-19T01:49:58.022Z,78.04
2022-11-19T01:52:27.075Z,78.04
2022-11-19T01:54:56.738Z,78.06
2022-11-19T01:57:27.006Z,78.00
2022-11-19T01:59:55.615Z,78.18
2022-11-19T02:02:25.228Z,78.46
2022-11-19T02:04:57.165Z,78.42
2022-11-19T02:07:29.283Z,78.18
2022-11-19T02:10:01.424Z,78.21
2022-11-19T02:12:43.142Z,78.20
2022-11-19T02:15:23.046Z,78.12
2022-11-19T02:18:30.690Z,78.42
2022-11-19T02:21:06.710Z,78.46
2022-11-19T02:24:02.108Z,78.53
2022-11-19T02:27:00.213Z,78.45
2022-11-19T02:30:06.546Z,78.46
2022-11-19T02:32:39.757Z,78.53
2022-11-19T02:35:19.372Z,78.63
2022-11-19T02:37:54.896Z,78.69
2022-11-19T02:40:27.579Z,78.80
2022-11-19T02:43:05.186Z,78.92
2022-11-19T02:45:38.923Z,78.78
2022-11-19T02:48:13.466Z,78.98
2022-11-19T02:50:46.353Z,79.11
2022-11-19T02:53:15.606Z,79.01
2022-11-19T02:56:07.167Z,79.12
2022-11-19T02:58:56.325Z,78.94
2022-11-19T03:01:47.571Z,78.99
2022-11-19T03:04:31.209Z,78.88
2022-11-19T03:07:03.833Z,79.03
2022-11-19T03:09:35.413Z,78.77
2022-11-19T03:12:13.326Z,79.11
2022-11-19T03:15:08.874Z,79.07
2022-11-19T03:17:52.725Z,79.22
2022-11-19T03:20:26.450Z,79.11
2022-11-19T03:23:00.134Z,79.26
2022-11-19T03:25:32.986Z,79.39
2022-11-19T03:28:04.734Z,79.20
2022-11-19T03:30:33.792Z,79.18
2022-11-19T03:33:08.112Z,79.19
2022-11-19T03:35:44.264Z,79.21
2022-11-19T03:38:17.875Z,79.27
2022-11-19T03:40:49.322Z,79.20
2022-11-19T03:43:21.439Z,79.17
2022-11-19T03:45:53.164Z,79.25
2022-11-19T03:48:25.293Z,79.06
2022-11-19T03:50:58.471Z,79.13
2022-11-19T03:53:29.234Z,79.16
2022-11-19T03:56:01.411Z,79.12
2022-11-19T03:58:35.437Z,79.07
2022-11-19T04:01:03.821Z,79.02
2022-11-19T04:03:34.685Z,79.26
2022-11-19T04:06:03.436Z,79.43
2022-11-19T04:08:33.299Z,79.15
2022-11-19T04:13:29.942Z,79.37
2022-11-19T04:15:58.333Z,79.36
2022-11-19T04:18:27.558Z,79.50
2022-11-19T04:20:57.339Z,79.42
2022-11-19T04:23:25.778Z,79.20
2022-11-19T04:25:54.693Z,78.57
2022-11-19T04:28:23.376Z,78.29
2022-11-19T04:30:52.211Z,78.11
2022-11-19T04:33:20.648Z,78.27
2022-11-19T04:35:49.662Z,77.97
2022-11-19T04:38:20.038Z,77.60
2022-11-19T04:40:49.129Z,77.46
2022-11-19T04:43:17.519Z,77.16
2022-11-19T04:45:46.267Z,76.79
2022-11-19T04:48:15.093Z,76.50
2022-11-19T04:50:43.597Z,76.33
2022-11-19T04:53:12.883Z,76.07
2022-11-19T04:55:43.302Z,76.13
2022-11-19T04:58:11.776Z,75.91
2022-11-19T05:00:40.711Z,75.93
2022-11-19T05:03:09.619Z,75.66
2022-11-19T05:05:38.051Z,75.77
2022-11-19T05:08:07.555Z,75.87
2022-11-19T05:10:36.779Z,75.82
2022-11-19T05:13:07.198Z,75.67
2022-11-19T05:15:35.747Z,75.78
2022-11-19T05:18:04.648Z,75.59
2022-11-19T05:20:33.565Z,75.61
2022-11-19T05:23:02.411Z,75.55
2022-11-19T05:25:30.936Z,75.38
2022-11-19T05:28:00.149Z,75.64
2022-11-19T05:30:29.912Z,75.49
2022-11-19T05:32:59.279Z,75.25
2022-11-19T05:35:27.762Z,75.35
2022-11-19T05:37:57.114Z,75.28
2022-11-19T05:40:25.568Z,75.08
2022-11-19T05:42:54.075Z,74.89
2022-11-19T05:45:22.900Z,75.01
2022-11-19T05:47:56.462Z,74.95
2022-11-19T05:50:24.877Z,74.68
2022-11-19T05:52:54.086Z,74.88
2022-11-19T05:55:22.881Z,74.92
2022-11-19T05:57:51.327Z,74.79
2022-11-19T06:00:21.727Z,74.59
2022-11-19T06:02:50.611Z,74.56
2022-11-19T06:05:20.335Z,74.64
2022-11-19T06:07:48.770Z,74.49
2022-11-19T06:10:17.461Z,74.23
2022-11-19T06:12:46.569Z,74.27
2022-11-19T06:15:15.804Z,74.15
2022-11-19T06:17:44.245Z,74.20
2022-11-19T06:20:13.127Z,74.18
2022-11-19T06:22:43.405Z,73.94
2022-11-19T06:25:11.844Z,74.03
2022-11-19T06:27:40.930Z,73.70
2022-11-19T06:30:10.946Z,74.01
2022-11-19T06:32:39.860Z,74.17
2022-11-19T06:35:08.931Z,74.04
2022-11-19T06:37:38.319Z,73.93
2022-11-19T06:40:09.607Z,73.80
2022-11-19T06:42:38.639Z,73.66
2022-11-19T06:45:09.423Z,73.62
2022-11-19T06:47:39.563Z,73.79
2022-11-19T06:50:10.108Z,73.82
2022-11-19T06:52:39.289Z,73.73
2022-11-19T06:55:10.722Z,73.66
2022-11-19T06:57:39.202Z,73.75
2022-11-19T07:00:09.151Z,73.74
2022-11-19T07:02:38.041Z,73.85
2022-11-19T07:05:08.130Z,73.59
2022-11-19T07:07:37.089Z,73.67
2022-11-19T07:10:07.220Z,73.55
2022-11-19T07:12:38.024Z,73.84
2022-11-19T07:15:07.933Z,73.95
2022-11-19T07:17:37.809Z,73.83
2022-11-19T07:20:08.408Z,73.91
2022-11-19T07:22:36.835Z,73.94
2022-11-19T07:25:06.222Z,73.99
2022-11-19T07:27:35.716Z,73.95
2022-11-19T07:30:07.866Z,73.85
2022-11-19T07:32:36.341Z,73.83
2022-11-19T07:35:05.377Z,73.84
2022-11-19T07:37:34.114Z,73.89
2022-11-19T07:40:02.660Z,74.06
2022-11-19T07:42:49.092Z,73.99
2022-11-19T07:45:19.981Z,73.90
2022-11-19T07:47:49.156Z,73.96
2022-11-19T07:50:18.214Z,73.70
2022-11-19T07:52:46.637Z,73.38
2022-11-19T07:55:15.502Z,73.48
2022-11-19T07:57:44.422Z,73.68
2022-11-19T08:00:14.486Z,73.63
2022-11-19T08:02:44.853Z,73.42
2022-11-19T08:05:13.964Z,73.59
2022-11-19T08:07:43.485Z,73.84
2022-11-19T08:10:12.705Z,73.85
2022-11-19T08:12:41.517Z,73.39
2022-11-19T08:15:10.870Z,73.40
2022-11-19T08:17:57.230Z,73.61
2022-11-19T08:20:26.967Z,73.61
2022-11-19T08:22:55.821Z,73.62
2022-11-19T08:25:24.439Z,73.51
2022-11-19T08:27:53.731Z,73.49
2022-11-19T08:30:22.162Z,73.55
2022-11-19T08:32:50.558Z,73.85
2022-11-19T08:35:19.392Z,73.89
2022-11-19T08:37:49.363Z,73.85
2022-11-19T08:40:18.738Z,73.79
2022-11-19T08:43:01.042Z,73.76
2022-11-19T08:45:31.860Z,73.65
2022-11-19T08:48:01.932Z,73.75
2022-11-19T08:50:31.696Z,73.66
2022-11-19T08:53:05.169Z,73.75
2022-11-19T08:55:33.938Z,73.47
2022-11-19T08:58:04.056Z,73.35
2022-11-19T09:00:34.175Z,73.32
2022-11-19T09:03:02.724Z,73.39
2022-11-19T09:05:31.474Z,73.16
2022-11-19T09:08:01.307Z,73.13
2022-11-19T09:10:30.347Z,73.04
2022-11-19T09:12:58.813Z,73.14
2022-11-19T09:15:27.567Z,73.19
2022-11-19T09:17:56.385Z,72.89
2022-11-19T09:20:25.640Z,73.08
2022-11-19T09:22:55.358Z,73.29
2022-11-19T09:25:25.235Z,73.44
2022-11-19T09:27:54.101Z,73.36
2022-11-19T09:30:22.489Z,73.45
2022-11-19T09:32:51.178Z,73.57
2022-11-19T09:35:20.277Z,73.68
2022-11-19T09:37:48.736Z,73.79
2022-11-19T09:40:21.211Z,73.72
2022-11-19T09:43:01.858Z,73.54
2022-11-19T09:45:42.770Z,73.59
2022-11-19T09:48:26.037Z,73.54
2022-11-19T09:51:00.090Z,73.57
2022-11-19T09:53:34.265Z,73.57
2022-11-19T09:56:03.678Z,73.64
2022-11-19T09:58:39.758Z,73.50
2022-11-19T10:01:11.762Z,73.29
2022-11-19T10:03:42.693Z,72.91
2022-11-19T10:06:26.661Z,72.89
2022-11-19T10:09:12.115Z,72.64
2022-11-19T10:11:52.177Z,72.64
2022-11-19T10:14:41.897Z,72.66
2022-11-19T10:17:20.912Z,72.53
2022-11-19T10:20:04.873Z,72.42
2022-11-19T10:22:40.023Z,72.49
2022-11-19T10:25:18.053Z,72.49
2022-11-19T10:27:49.998Z,72.46
2022-11-19T10:30:23.577Z,72.48
2022-11-19T10:32:58.308Z,72.47
2022-11-19T10:35:31.136Z,72.52
2022-11-19T10:38:02.328Z,72.62
2022-11-19T10:40:36.611Z,74.29
2022-11-19T10:43:23.212Z,74.46
2022-11-19T10:45:54.748Z,73.20
2022-11-19T10:48:25.784Z,73.02
2022-11-19T10:50:56.184Z,73.04
2022-11-19T10:53:31.818Z,73.00
2022-11-19T10:56:04.671Z,72.86
2022-11-19T10:58:37.961Z,73.01
2022-11-19T11:01:17.745Z,73.07
2022-11-19T11:03:50.072Z,72.98
2022-11-19T11:06:19.283Z,72.86
2022-11-19T11:08:52.554Z,73.01
2022-11-19T11:11:26.321Z,73.18
2022-11-19T11:14:11.740Z,73.14
2022-11-19T11:16:47.888Z,73.33
2022-11-19T11:19:19.652Z,73.16
2022-11-19T11:21:53.664Z,73.35
2022-11-19T11:24:23.517Z,73.28
2022-11-19T11:27:22.589Z,73.36
2022-11-19T11:30:04.802Z,73.47
2022-11-19T11:32:35.435Z,73.44
2022-11-19T11:35:08.209Z,73.35
2022-11-19T11:37:38.415Z,73.58
2022-11-19T11:40:09.152Z,73.67
2022-11-19T11:42:37.586Z,73.51
2022-11-19T11:45:09.407Z,73.59
2022-11-19T11:47:41.260Z,73.59
2022-11-19T11:50:16.597Z,73.76
2022-11-19T11:52:47.839Z,73.61
2022-11-19T11:55:32.109Z,73.54
2022-11-19T11:58:03.065Z,73.82
2022-11-19T12:00:35.098Z,73.71
2022-11-19T12:03:08.367Z,73.53
2022-11-19T12:05:48.189Z,73.60
2022-11-19T12:08:32.290Z,73.40
2022-11-19T12:11:08.530Z,73.28
2022-11-19T12:13:52.467Z,73.18
2022-11-19T12:16:33.533Z,73.16
2022-11-19T12:19:18.223Z,73.20
2022-11-19T12:21:57.258Z,73.30
2022-11-19T12:24:42.217Z,73.16
2022-11-19T12:27:24.032Z,73.16
2022-11-19T12:30:05.292Z,73.08
2022-11-19T12:32:54.775Z,73.07
2022-11-19T12:35:45.971Z,73.10
2022-11-19T12:38:40.475Z,73.12
2022-11-19T12:41:24.057Z,73.12
2022-11-19T12:43:57.438Z,73.10
2022-11-19T12:46:40.480Z,72.84
2022-11-19T12:49:29.500Z,72.96
2022-11-19T12:52:06.864Z,72.86
2022-11-19T12:54:53.267Z,73.08
2022-11-19T12:57:40.466Z,72.96
2022-11-19T13:00:14.351Z,72.82
2022-11-19T13:02:53.119Z,72.70
2022-11-19T13:05:26.337Z,72.54
2022-11-19T13:08:01.490Z,72.43
2022-11-19T13:10:37.110Z,72.41
2022-11-19T13:13:10.490Z,72.41
2022-11-19T13:15:41.146Z,72.15
2022-11-19T13:18:16.681Z,72.26
2022-11-19T13:20:50.684Z,72.16
2022-11-19T13:23:25.398Z,71.98
2022-11-19T13:25:59.421Z,72.22
2022-11-19T13:28:36.259Z,72.18
2022-11-19T13:31:08.591Z,71.88
2022-11-19T13:33:45.003Z,71.97
2022-11-19T13:36:19.646Z,72.09
2022-11-19T13:38:54.774Z,72.07
2022-11-19T13:41:26.981Z,72.32
2022-11-19T13:44:15.461Z,72.18
2022-11-19T13:46:47.014Z,72.18
2022-11-19T13:49:22.006Z,72.23
2022-11-19T13:51:53.847Z,72.21
2022-11-19T13:54:26.553Z,72.04
2022-11-19T13:56:58.174Z,72.18
2022-11-19T13:59:33.670Z,72.23
2022-11-19T14:02:38.771Z,72.17
2022-11-19T14:05:35.059Z,71.98
2022-11-19T14:08:18.540Z,72.17
2022-11-19T14:11:04.622Z,72.23
2022-11-19T14:13:46.884Z,72.36
2022-11-19T14:16:43.984Z,72.27
2022-11-19T14:19:33.317Z,72.26
2022-11-19T14:22:39.867Z,72.38
2022-11-19T14:25:28.282Z,72.48
2022-11-19T14:27:57.382Z,72.54
2022-11-19T14:31:03.113Z,72.57
2022-11-19T14:34:01.364Z,72.52
2022-11-19T14:36:42.887Z,72.45
2022-11-19T14:39:19.124Z,72.68
2022-11-19T14:42:13.346Z,72.70
2022-11-19T14:44:42.411Z,72.79
2022-11-19T14:47:34.565Z,72.73
2022-11-19T14:50:06.830Z,72.68
2022-11-19T14:52:39.702Z,72.68
2022-11-19T14:55:22.845Z,72.67
2022-11-19T14:57:58.499Z,72.54
2022-11-19T15:00:31.428Z,72.66
2022-11-19T15:03:02.387Z,72.51
2022-11-19T15:05:34.629Z,72.60
2022-11-19T15:08:44.295Z,72.86
2022-11-19T15:11:14.327Z,72.93
2022-11-19T15:13:46.424Z,72.89
2022-11-19T15:16:17.933Z,72.88
2022-11-19T15:19:22.738Z,73.12
2022-11-19T15:22:33.852Z,73.19
2022-11-19T15:25:31.016Z,73.08
2022-11-19T15:28:07.886Z,73.19
2022-11-19T15:30:53.615Z,73.36
2022-11-19T15:33:56.956Z,73.24
2022-11-19T15:36:31.806Z,73.25
2022-11-19T15:39:06.006Z,73.26
2022-11-19T15:41:39.978Z,73.27
2022-11-19T15:44:14.082Z,73.24
2022-11-19T15:46:52.157Z,73.18
2022-11-19T15:49:24.378Z,73.13
2022-11-19T15:52:06.081Z,73.15
2022-11-19T15:54:36.299Z,73.24
2022-11-19T15:57:07.833Z,73.25
2022-11-19T15:59:39.781Z,75.30
2022-11-19T16:02:22.043Z,74.41
2022-11-19T16:04:51.375Z,74.21
2022-11-19T16:07:25.877Z,73.89
2022-11-19T16:09:55.635Z,73.67
2022-11-19T16:12:42.993Z,73.83
2022-11-19T16:15:38.019Z,73.99
2022-11-19T16:18:15.690Z,73.96
2022-11-19T16:20:47.779Z,74.19
2022-11-19T16:23:22.373Z,74.07
2022-11-19T16:25:51.633Z,74.17
2022-11-19T16:28:24.513Z,74.08
2022-11-19T16:30:54.854Z,74.33
2022-11-19T16:33:27.659Z,74.14
2022-11-19T16:36:14.055Z,74.28
2022-11-19T16:38:44.450Z,74.16
2022-11-19T16:41:31.535Z,74.34
2022-11-19T16:44:00.509Z,74.52
2022-11-19T16:46:31.499Z,74.57
2022-11-19T16:49:03.395Z,74.70
2022-11-19T16:51:37.737Z,74.78
2022-11-19T16:54:08.595Z,74.82
2022-11-19T16:56:41.941Z,74.75
2022-11-19T16:59:19.170Z,74.95
2022-11-19T17:01:56.959Z,75.14
2022-11-19T17:04:30.182Z,74.71
2022-11-19T17:06:59.897Z,75.01
2022-11-19T17:09:44.308Z,75.09
2022-11-19T17:12:27.737Z,75.17
2022-11-19T17:14:59.428Z,75.21
2022-11-19T17:17:40.223Z,75.22
2022-11-19T17:21:00.294Z,75.25
2022-11-19T17:23:32.280Z,74.90
2022-11-19T17:26:03.137Z,75.04
2022-11-19T17:28:38.372Z,75.17
2022-11-19T17:31:15.998Z,75.48
2022-11-19T17:33:52.038Z,75.57
2022-11-19T17:36:22.555Z,75.56
2022-11-19T17:38:52.572Z,75.66
2022-11-19T17:41:38.427Z,75.69
2022-11-19T17:44:30.363Z,75.67
2022-11-19T17:47:00.183Z,75.78
2022-11-19T17:49:28.567Z,75.75
2022-11-19T17:51:57.922Z,75.58
2022-11-19T17:54:27.841Z,75.58
2022-11-19T17:56:56.708Z,75.47
2022-11-19T17:59:25.889Z,75.44
2022-11-19T18:01:54.369Z,75.35
2022-11-19T18:04:23.284Z,75.53
2022-11-19T18:06:51.728Z,75.33
2022-11-19T18:09:20.569Z,75.08
2022-11-19T18:11:51.452Z,74.88
2022-11-19T18:14:20.273Z,74.89
2022-11-19T18:16:50.022Z,75.02
2022-11-19T18:19:26.554Z,75.29
2022-11-19T18:21:55.787Z,75.33
2022-11-19T18:24:25.338Z,75.30
2022-11-19T18:26:55.511Z,75.18
2022-11-19T18:29:24.671Z,74.94
2022-11-19T18:31:54.151Z,74.96
2022-11-19T18:34:24.580Z,74.90
2022-11-19T18:36:53.302Z,74.99
2022-11-19T18:39:22.380Z,74.90
2022-11-19T18:41:52.704Z,74.92
2022-11-19T18:44:33.968Z,74.87
2022-11-19T18:47:03.786Z,74.76
2022-11-19T18:49:33.790Z,74.78
2022-11-19T18:52:02.381Z,74.79
2022-11-19T18:54:31.641Z,74.66
2022-11-19T18:57:00.230Z,74.68
2022-11-19T18:59:30.914Z,74.80
2022-11-19T19:01:59.631Z,74.47
2022-11-19T19:04:28.132Z,74.39
2022-11-19T19:06:59.611Z,74.16
2022-11-19T19:09:28.183Z,74.05
2022-11-19T19:12:14.328Z,74.24
2022-11-19T19:14:44.974Z,74.19
2022-11-19T19:17:15.096Z,74.27
2022-11-19T19:19:43.662Z,73.97
2022-11-19T19:22:12.902Z,74.01
2022-11-19T19:24:42.306Z,73.99
2022-11-19T19:27:11.118Z,74.13
2022-11-19T19:29:40.537Z,74.43
2022-11-19T19:32:10.300Z,74.39
2022-11-19T19:34:39.793Z,74.55
2022-11-19T19:37:08.242Z,74.53
2022-11-19T19:39:38.076Z,74.40
2022-11-19T19:42:06.771Z,74.33
2022-11-19T19:44:40.713Z,74.13
2022-11-19T19:47:10.978Z,74.23
2022-11-19T19:49:39.506Z,74.82
2022-11-19T19:52:08.914Z,77.04
2022-11-19T19:54:37.450Z,76.74
2022-11-19T19:57:06.753Z,75.29
2022-11-19T19:59:35.471Z,74.76
2022-11-19T20:02:03.892Z,74.89
2022-11-19T20:04:34.065Z,75.22
2022-11-19T20:07:03.195Z,75.02
2022-11-19T20:09:31.653Z,75.10
2022-11-19T20:12:00.942Z,75.39
2022-11-19T20:14:30.062Z,75.71
2022-11-19T20:16:58.727Z,76.32
2022-11-19T20:19:27.188Z,75.97
2022-11-19T20:21:56.921Z,76.57
2022-11-19T20:24:25.768Z,76.67
2022-11-19T20:26:55.648Z,76.42
2022-11-19T20:29:24.406Z,76.07
2022-11-19T20:31:52.893Z,75.88
2022-11-19T20:34:21.892Z,75.98
2022-11-19T20:36:50.348Z,75.99
2022-11-19T20:39:20.418Z,75.74
2022-11-19T20:42:07.976Z,75.71
2022-11-19T20:44:36.402Z,75.77
2022-11-19T20:47:05.806Z,75.59
2022-11-19T20:49:38.694Z,75.56
2022-11-19T20:52:07.920Z,75.36
2022-11-19T20:54:37.897Z,75.36
2022-11-19T20:57:07.229Z,75.35
2022-11-19T20:59:36.498Z,75.59
2022-11-19T21:02:05.357Z,75.63
2022-11-19T21:04:37.613Z,75.59
2022-11-19T21:07:07.176Z,75.56
2022-11-19T21:09:37.524Z,75.68
2022-11-19T21:12:07.182Z,75.82
2022-11-19T21:14:35.902Z,75.93
2022-11-19T21:17:04.382Z,75.83
2022-11-19T21:19:32.845Z,75.87
2022-11-19T21:22:01.811Z,75.90
2022-11-19T21:24:30.761Z,75.67
2022-11-19T21:27:00.672Z,75.86
2022-11-19T21:29:29.190Z,75.57
2022-11-19T21:31:59.007Z,75.66
2022-11-19T21:34:27.475Z,75.82
2022-11-19T21:36:58.293Z,75.47
2022-11-19T21:39:27.131Z,75.53
2022-11-19T21:41:57.146Z,75.39
2022-11-19T21:44:27.224Z,75.33
2022-11-19T21:46:55.591Z,75.35
2022-11-19T21:49:25.122Z,75.24
2022-11-19T21:51:53.506Z,75.11
2022-11-19T21:54:22.861Z,75.16
2022-11-19T21:56:51.784Z,75.09
2022-11-19T21:59:20.482Z,75.09
2022-11-19T22:01:54.749Z,75.18
2022-11-19T22:04:23.628Z,74.99
2022-11-19T22:06:52.455Z,74.94
2022-11-19T22:09:21.170Z,74.98
2022-11-19T22:11:50.696Z,74.81
2022-11-19T22:14:19.158Z,74.94
2022-11-19T22:16:48.046Z,74.84
2022-11-19T22:19:19.550Z,74.90
2022-11-19T22:21:48.709Z,74.82
2022-11-19T22:24:17.338Z,74.92
2022-11-19T22:26:47.720Z,74.85
2022-11-19T22:29:16.735Z,75.06
2022-11-19T22:31:45.216Z,75.04
2022-11-19T22:34:14.662Z,75.11
2022-11-19T22:36:44.838Z,75.19
2022-11-19T22:39:14.179Z,75.26
2022-11-19T22:41:43.002Z,75.37
2022-11-19T22:44:11.686Z,75.55
2022-11-19T22:46:40.085Z,75.70
2022-11-19T22:49:09.338Z,75.79
2022-11-19T22:51:37.932Z,75.97
2022-11-19T22:54:09.083Z,75.86
2022-11-19T22:56:37.669Z,75.84
2022-11-19T22:59:07.061Z,76.04
2022-11-19T23:01:36.564Z,76.01
2022-11-19T23:04:07.062Z,76.12
2022-11-19T23:06:37.262Z,76.17
2022-11-19T23:09:08.480Z,76.18
2022-11-19T23:11:55.044Z,76.18
2022-11-19T23:14:25.211Z,76.11
2022-11-19T23:16:54.376Z,76.15
2022-11-19T23:19:23.478Z,76.09
2022-11-19T23:21:52.155Z,76.16
2022-11-19T23:24:22.575Z,76.13
2022-11-19T23:26:50.965Z,76.15
2022-11-19T23:29:20.914Z,76.16
2022-11-19T23:31:50.030Z,76.18
2022-11-19T23:34:19.035Z,76.13
2022-11-19T23:36:47.418Z,76.07
2022-11-19T23:39:18.391Z,76.09
2022-11-19T23:41:48.634Z,75.85
2022-11-19T23:44:17.098Z,75.90
2022-11-19T23:46:47.021Z,75.89
2022-11-19T23:49:15.480Z,76.16
2022-11-19T23:51:44.964Z,76.01
2022-11-19T23:54:13.882Z,76.00
2022-11-19T23:56:43.408Z,76.11
2022-11-19T23:59:13.634Z,76.17
